Carnes, Iowa
Current Conditions -  °F | °C
As of 8:15 PM on Saturday 25 Oct 2014 (Local Time) from KORC Reporting Station
Clear Clear  
Wind Chill: 14°   Ceiling: Unl
Heat Index: 14°   Visibility: 10mi
Dew Point:   Wind: 5mph
Humidity: 38%   Direction: 70°ENE
Pressure: 30.07"   Gusts: NA
Location:  42.9504°N, 96.034°W
Report Text: KORC 260115Z AUTO 07004KT 10SM CLR 14/00 A3007 RMK AO2
Loading
Personal Weather Stations






























Interactive Weather Map
Tropical Storm Tracking
New forecast layout! Learn more

10-Day Weather Forecast

Advertisements
Track Severe Weather on mobile